Terminal Aerodrome Forecast
Issued by NWS

Home | Current Version | Previous Version | Text Only | Print | Product List | Glossary On
Versions: 1 2 3 4 5 6 7 8 9 10 11 12 13 14 15 16 17 18 19 20 21 22 23 24 25 26 27 28 29 30
000
FTUS45 KBOI 190520
TAFTWF
TAF
KTWF 190520Z 1906/2006 19008KT 5SM HZ FEW100
     FM190900 20010KT P6SM FEW100
     FM191700 28015KT P6SM FEW100 SCT200
     FM200200 20009KT P6SM SCT200=

USA.gov is the U.S. government's official web portal to all federal, state and local government web resources and services.